createdAt,value
2022-09-18T00:01:22.327Z,8.3
2022-09-18T00:15:22.284Z,8.4
2022-09-18T00:29:22.276Z,8.3
2022-09-18T00:43:22.289Z,7.9
2022-09-18T00:57:22.339Z,7.9
2022-09-18T01:11:22.339Z,8.0
2022-09-18T01:25:22.318Z,8.0
2022-09-18T01:39:22.310Z,7.4
2022-09-18T01:53:22.321Z,7.7
2022-09-18T02:07:22.329Z,7.2
2022-09-18T02:21:22.335Z,7.4
2022-09-18T02:35:22.331Z,7.2
2022-09-18T02:49:22.342Z,7.0
2022-09-18T03:03:22.349Z,6.8
2022-09-18T03:17:22.353Z,6.8
2022-09-18T03:31:22.419Z,6.6
2022-09-18T03:45:22.376Z,6.5
2022-09-18T03:59:22.380Z,6.5
2022-09-18T04:13:22.410Z,6.6
2022-09-18T04:27:22.455Z,6.5
2022-09-18T04:41:22.446Z,6.6
2022-09-18T04:56:22.453Z,6.7
2022-09-18T05:11:22.474Z,6.8
2022-09-18T05:27:26.715Z,6.8
2022-09-18T05:42:22.465Z,6.9
2022-09-18T05:57:22.589Z,7.4
2022-09-18T06:12:22.600Z,7.8
2022-09-18T06:27:22.586Z,8.6
2022-09-18T06:42:22.580Z,9.3
2022-09-18T06:57:22.600Z,9.9
2022-09-18T07:12:22.811Z,15.0
2022-09-18T07:27:22.850Z,18.3
2022-09-18T07:42:22.934Z,18.9
2022-09-18T07:58:22.832Z,19.1
2022-09-18T08:13:24.032Z,18.6
2022-09-18T08:28:22.885Z,19.7
2022-09-18T08:43:22.955Z,20.2
2022-09-18T08:58:23.103Z,20.6
2022-09-18T09:13:23.104Z,20.3
2022-09-18T09:28:23.144Z,20.3
2022-09-18T09:43:23.171Z,20.7
2022-09-18T09:58:23.181Z,21.0
2022-09-18T10:13:23.511Z,20.2
2022-09-18T10:28:23.632Z,19.4
2022-09-18T10:43:23.629Z,20.1
2022-09-18T10:58:23.659Z,20.0
2022-09-18T11:13:23.645Z,20.0
2022-09-18T11:28:23.728Z,20.6
2022-09-18T11:43:23.710Z,21.8
2022-09-18T11:58:23.708Z,22.4
2022-09-18T12:13:22.372Z,22.9
2022-09-18T12:28:22.396Z,23.5
2022-09-18T12:43:23.157Z,23.3
2022-09-18T12:58:23.132Z,22.8
2022-09-18T13:13:23.146Z,24.7
2022-09-18T13:28:23.887Z,24.4
2022-09-18T13:43:23.919Z,25.0
2022-09-18T13:58:23.917Z,24.7
2022-09-18T14:13:23.959Z,24.6
2022-09-18T14:28:23.956Z,24.8
2022-09-18T14:44:23.974Z,25.0
2022-09-18T15:00:23.974Z,24.4
2022-09-18T15:15:23.987Z,24.1
2022-09-18T15:31:24.024Z,24.5
2022-09-18T15:46:24.124Z,24.2
2022-09-18T16:02:24.124Z,23.0
2022-09-18T16:17:24.053Z,20.4
2022-09-18T16:32:24.080Z,19.2
2022-09-18T16:47:24.232Z,17.4
2022-09-18T17:03:24.209Z,16.5
2022-09-18T17:19:24.209Z,15.7
2022-09-18T17:34:24.216Z,15.0
2022-09-18T17:50:24.199Z,14.6
2022-09-18T18:05:24.246Z,13.9
2022-09-18T18:19:24.254Z,13.7
2022-09-18T18:33:24.259Z,13.8
2022-09-18T18:47:24.267Z,13.7
2022-09-18T19:01:24.518Z,13.1
2022-09-18T19:15:24.510Z,13.0
2022-09-18T19:29:24.618Z,12.7
2022-09-18T19:43:24.494Z,12.4
2022-09-18T19:57:24.323Z,12.1
2022-09-18T20:11:24.290Z,12.0
2022-09-18T20:25:24.425Z,12.2
2022-09-18T20:39:24.287Z,12.0
2022-09-18T20:53:24.339Z,12.1
2022-09-18T21:07:24.335Z,11.9
2022-09-18T21:21:24.307Z,11.7
2022-09-18T21:35:24.328Z,11.7
2022-09-18T21:49:24.301Z,12.0
2022-09-18T22:03:24.331Z,12.0
2022-09-18T22:17:24.319Z,12.0
2022-09-18T22:31:24.400Z,11.7
2022-09-18T22:45:24.330Z,11.6
2022-09-18T22:59:24.349Z,12.0
2022-09-18T23:13:24.378Z,11.6
2022-09-18T23:27:24.365Z,11.4
2022-09-18T23:41:24.405Z,11.0
2022-09-18T23:55:24.379Z,10.9
